createdAt,value
2018-11-03T00:00:25.934Z,5.33
2018-11-03T00:01:25.957Z,5.27
2018-11-03T00:02:25.980Z,5.26
2018-11-03T00:03:26.006Z,5.26
2018-11-03T00:04:26.029Z,5.23
2018-11-03T00:05:26.051Z,5.24
2018-11-03T00:06:26.074Z,5.23
2018-11-03T00:07:26.102Z,5.13
2018-11-03T00:08:26.121Z,5.10
2018-11-03T00:09:26.147Z,5.18
2018-11-03T00:10:26.168Z,5.05
2018-11-03T00:11:26.191Z,5.10
2018-11-03T00:12:26.215Z,5.10
2018-11-03T00:13:26.237Z,5.08
2018-11-03T00:14:26.260Z,5.09
2018-11-03T00:15:26.284Z,5.10
2018-11-03T00:16:26.308Z,5.15
2018-11-03T00:17:26.330Z,5.13
2018-11-03T00:18:26.357Z,5.13
2018-11-03T00:19:26.377Z,5.08
2018-11-03T00:20:26.401Z,5.10
2018-11-03T00:21:26.423Z,5.02
2018-11-03T00:22:26.446Z,5.02
2018-11-03T00:23:26.469Z,5.10
2018-11-03T00:24:26.495Z,5.15
2018-11-03T00:25:26.516Z,5.06
2018-11-03T00:26:26.540Z,5.16
2018-11-03T00:27:26.565Z,4.98
2018-11-03T00:28:26.599Z,5.06
2018-11-03T00:29:26.609Z,4.97
2018-11-03T00:30:26.631Z,4.94
2018-11-03T00:31:26.654Z,4.91
2018-11-03T00:32:26.678Z,4.94
2018-11-03T00:33:26.700Z,5.00
2018-11-03T00:34:26.723Z,4.95
2018-11-03T00:35:26.747Z,4.97
2018-11-03T00:36:26.771Z,4.91
2018-11-03T00:37:26.793Z,4.95
2018-11-03T00:38:26.819Z,4.92
2018-11-03T00:39:26.842Z,4.92
2018-11-03T00:40:26.883Z,4.90
2018-11-03T00:41:26.887Z,4.85
2018-11-03T00:42:26.909Z,4.87
2018-11-03T00:43:26.933Z,4.83
2018-11-03T00:44:26.956Z,4.84
2018-11-03T00:45:26.979Z,4.79
2018-11-03T00:46:27.002Z,4.78
2018-11-03T00:47:27.024Z,4.71
2018-11-03T00:48:27.047Z,4.68
2018-11-03T00:49:27.071Z,4.72
2018-11-03T00:50:27.093Z,4.78
2018-11-03T00:51:27.117Z,4.72
2018-11-03T00:52:27.141Z,4.74
2018-11-03T00:53:27.162Z,4.76
2018-11-03T00:54:27.186Z,4.74
2018-11-03T00:55:27.210Z,4.69
2018-11-03T00:56:27.233Z,4.76
2018-11-03T00:57:27.255Z,4.69
2018-11-03T00:58:27.278Z,4.76
2018-11-03T00:59:27.302Z,4.69
2018-11-03T01:00:27.325Z,4.76
2018-11-03T01:01:27.348Z,4.75
2018-11-03T01:02:27.371Z,4.68
2018-11-03T01:03:27.394Z,4.71
2018-11-03T01:04:27.418Z,4.72
2018-11-03T01:05:27.440Z,4.74
2018-11-03T01:06:27.462Z,4.65
2018-11-03T01:07:27.487Z,4.65
2018-11-03T01:08:27.514Z,4.68
2018-11-03T01:09:27.532Z,4.69
2018-11-03T01:10:27.555Z,4.68
2018-11-03T01:11:27.578Z,4.66
2018-11-03T01:12:27.606Z,4.66
2018-11-03T01:13:27.624Z,4.68
2018-11-03T01:14:27.648Z,4.74
2018-11-03T01:15:27.673Z,4.69
2018-11-03T01:16:27.694Z,4.66
2018-11-03T01:17:27.751Z,4.69
2018-11-03T01:18:27.741Z,4.66
2018-11-03T01:19:27.763Z,4.56
2018-11-03T01:20:27.786Z,4.60
2018-11-03T01:21:27.809Z,4.57
2018-11-03T01:22:27.832Z,4.56
2018-11-03T01:23:27.956Z,4.51
2018-11-03T01:24:27.879Z,4.48
2018-11-03T01:25:27.901Z,4.48
2018-11-03T01:26:27.925Z,4.50
2018-11-03T01:27:27.948Z,4.54
2018-11-03T01:28:27.971Z,4.56
2018-11-03T01:29:27.993Z,4.48
2018-11-03T01:30:28.016Z,4.50
2018-11-03T01:31:28.040Z,4.54
2018-11-03T01:32:28.105Z,4.47
2018-11-03T01:33:28.085Z,4.38
2018-11-03T01:34:28.119Z,4.39
2018-11-03T01:35:28.135Z,4.39
2018-11-03T01:36:28.156Z,4.42
2018-11-03T01:37:28.177Z,4.33
2018-11-03T01:38:28.201Z,4.42
2018-11-03T01:39:28.227Z,4.36
2018-11-03T01:40:28.248Z,4.40
2018-11-03T01:41:28.272Z,4.38
2018-11-03T01:42:28.293Z,4.44
2018-11-03T01:43:28.318Z,4.44
2018-11-03T01:44:28.342Z,4.33
2018-11-03T01:45:28.361Z,4.38
2018-11-03T01:46:28.384Z,4.33
2018-11-03T01:47:28.408Z,4.36
2018-11-03T01:48:28.435Z,4.29
2018-11-03T01:49:28.453Z,4.38
2018-11-03T01:50:28.476Z,4.28
2018-11-03T01:51:28.500Z,4.28
2018-11-03T01:52:28.525Z,4.30
2018-11-03T01:53:28.545Z,4.33
2018-11-03T01:54:28.569Z,4.35
2018-11-03T01:55:28.592Z,4.38
2018-11-03T01:56:28.615Z,4.39
2018-11-03T01:57:28.638Z,4.38
2018-11-03T01:58:28.667Z,4.35
2018-11-03T01:59:28.683Z,4.36
2018-11-03T02:00:28.708Z,4.39
2018-11-03T02:01:28.730Z,4.35
2018-11-03T02:02:28.752Z,4.38
2018-11-03T02:03:28.777Z,4.39
2018-11-03T02:04:28.799Z,4.28
2018-11-03T02:05:28.821Z,4.36
2018-11-03T02:06:28.844Z,4.39
2018-11-03T02:07:28.868Z,4.29
2018-11-03T02:08:28.894Z,4.35
2018-11-03T02:09:28.913Z,4.28
2018-11-03T02:10:28.937Z,4.33
2018-11-03T02:11:28.961Z,4.33
2018-11-03T02:12:28.983Z,4.38
2018-11-03T02:13:29.006Z,4.30
2018-11-03T02:14:29.037Z,4.42
2018-11-03T02:15:29.051Z,4.40
2018-11-03T02:16:29.075Z,4.33
2018-11-03T02:17:29.097Z,4.38
2018-11-03T02:18:29.120Z,4.47
2018-11-03T02:19:29.142Z,4.53
2018-11-03T02:20:29.169Z,4.61
2018-11-03T02:21:29.189Z,4.51
2018-11-03T02:22:29.232Z,4.54
2018-11-03T02:23:29.235Z,4.46
2018-11-03T02:24:29.258Z,4.56
2018-11-03T02:25:29.280Z,4.56
2018-11-03T02:26:29.303Z,4.53
2018-11-03T02:27:29.329Z,4.54
2018-11-03T02:28:29.351Z,4.51
2018-11-03T02:29:29.371Z,4.46
2018-11-03T02:30:29.401Z,4.40
2018-11-03T02:31:29.417Z,4.48
2018-11-03T02:32:29.440Z,4.53
2018-11-03T02:33:29.527Z,4.53
2018-11-03T02:34:29.485Z,4.39
2018-11-03T02:35:29.512Z,4.46
2018-11-03T02:36:29.532Z,4.44
2018-11-03T02:37:29.555Z,4.42
2018-11-03T02:38:29.577Z,4.39
2018-11-03T02:39:29.607Z,4.30
2018-11-03T02:40:29.632Z,4.28
2018-11-03T02:41:29.645Z,4.20
2018-11-03T02:42:29.668Z,4.32
2018-11-03T02:43:29.737Z,4.26
2018-11-03T02:44:29.714Z,4.28
2018-11-03T02:45:29.736Z,4.20
2018-11-03T02:46:29.760Z,4.26
2018-11-03T02:47:29.783Z,4.26
2018-11-03T02:48:29.806Z,4.26
2018-11-03T02:49:29.829Z,4.32
2018-11-03T02:50:29.854Z,4.32
2018-11-03T02:51:29.874Z,4.28
2018-11-03T02:52:29.898Z,4.28
2018-11-03T02:53:29.924Z,4.29
2018-11-03T02:54:29.942Z,4.24
2018-11-03T02:55:29.966Z,4.26
2018-11-03T02:56:29.988Z,4.30
2018-11-03T02:57:30.060Z,4.30
2018-11-03T02:58:30.040Z,4.32
2018-11-03T02:59:30.056Z,4.35
2018-11-03T03:00:30.080Z,4.28
2018-11-03T03:01:30.103Z,4.29
2018-11-03T03:02:30.125Z,4.26
2018-11-03T03:03:30.151Z,4.28
2018-11-03T03:04:30.171Z,4.22
2018-11-03T03:05:30.195Z,4.22
2018-11-03T03:06:30.216Z,4.24
2018-11-03T03:07:30.242Z,4.17
2018-11-03T03:08:30.289Z,4.26
2018-11-03T03:09:30.286Z,4.15
2018-11-03T03:10:30.307Z,4.17
2018-11-03T03:11:30.331Z,4.11
2018-11-03T03:12:30.354Z,4.18
2018-11-03T03:13:30.376Z,4.10
2018-11-03T03:14:30.399Z,4.17
2018-11-03T03:15:30.422Z,4.14
2018-11-03T03:16:30.445Z,4.12
2018-11-03T03:17:30.470Z,4.24
2018-11-03T03:18:30.492Z,4.11
2018-11-03T03:19:30.513Z,4.17
2018-11-03T03:20:30.551Z,4.18
2018-11-03T03:21:30.558Z,4.26
2018-11-03T03:22:30.581Z,4.21
2018-11-03T03:23:30.605Z,4.11
2018-11-03T03:24:30.627Z,4.14
2018-11-03T03:25:30.649Z,4.10
2018-11-03T03:26:30.677Z,4.12
2018-11-03T03:27:30.700Z,4.28
2018-11-03T03:28:30.719Z,4.18
2018-11-03T03:29:30.835Z,4.24
2018-11-03T03:30:30.766Z,4.18
2018-11-03T03:31:30.787Z,4.07
2018-11-03T03:32:30.810Z,4.14
2018-11-03T03:33:30.836Z,4.12
2018-11-03T03:34:30.855Z,4.07
2018-11-03T03:35:30.887Z,3.99
2018-11-03T03:36:30.902Z,4.07
2018-11-03T03:37:30.925Z,4.03
2018-11-03T03:38:30.946Z,4.04
2018-11-03T03:39:30.969Z,4.00
2018-11-03T03:40:30.993Z,4.04
2018-11-03T03:41:31.015Z,4.02
2018-11-03T03:42:31.038Z,4.08
2018-11-03T03:43:31.061Z,3.96
2018-11-03T03:44:31.085Z,3.99
2018-11-03T03:45:31.117Z,3.89
2018-11-03T03:46:31.130Z,3.92
2018-11-03T03:47:31.152Z,3.85
2018-11-03T03:48:31.175Z,3.92
2018-11-03T03:49:31.198Z,4.02
2018-11-03T03:50:31.227Z,4.02
2018-11-03T03:51:31.246Z,3.90
2018-11-03T03:52:31.267Z,3.93
2018-11-03T03:53:31.293Z,3.90
2018-11-03T03:54:31.314Z,3.92
2018-11-03T03:55:31.337Z,3.93
2018-11-03T03:56:31.359Z,3.89
2018-11-03T03:57:31.380Z,4.03
2018-11-03T03:58:31.403Z,3.92
2018-11-03T03:59:31.431Z,3.92
2018-11-03T04:00:31.452Z,4.00
2018-11-03T04:01:31.480Z,3.97
2018-11-03T04:02:31.496Z,4.00
2018-11-03T04:03:31.523Z,4.04
2018-11-03T04:04:31.541Z,4.02
2018-11-03T04:05:31.562Z,4.00
2018-11-03T04:06:31.585Z,4.02
2018-11-03T04:07:31.610Z,4.08
2018-11-03T04:08:31.632Z,4.04
2018-11-03T04:09:31.657Z,4.15
2018-11-03T04:10:31.678Z,4.03
2018-11-03T04:11:31.702Z,4.12
2018-11-03T04:12:31.727Z,4.03
2018-11-03T04:13:31.748Z,4.04
2018-11-03T04:14:31.768Z,4.04
2018-11-03T04:15:31.795Z,4.08
2018-11-03T04:16:31.815Z,4.03
2018-11-03T04:17:31.836Z,4.04
2018-11-03T04:18:31.905Z,4.08
2018-11-03T04:19:31.882Z,4.11
2018-11-03T04:20:31.905Z,4.04
2018-11-03T04:21:31.932Z,4.08
2018-11-03T04:22:31.952Z,4.03
2018-11-03T04:23:31.976Z,4.04
2018-11-03T04:24:31.997Z,4.08
2018-11-03T04:25:32.018Z,4.02
2018-11-03T04:26:32.042Z,4.03
2018-11-03T04:27:32.065Z,4.00
2018-11-03T04:28:32.089Z,3.96
2018-11-03T04:29:32.110Z,3.96
2018-11-03T04:30:32.133Z,3.97
2018-11-03T04:31:32.157Z,4.02
2018-11-03T04:32:32.179Z,3.97
2018-11-03T04:33:32.201Z,3.89
2018-11-03T04:34:32.224Z,4.00
2018-11-03T04:35:32.250Z,4.00
2018-11-03T04:36:32.275Z,3.96
2018-11-03T04:37:32.293Z,4.00
2018-11-03T04:38:32.317Z,3.93
2018-11-03T04:39:32.337Z,3.90
2018-11-03T04:40:32.364Z,4.04
2018-11-03T04:41:32.384Z,4.00
2018-11-03T04:42:32.409Z,3.93
2018-11-03T04:43:32.430Z,3.90
2018-11-03T04:44:32.474Z,3.99
2018-11-03T04:45:32.567Z,3.99
2018-11-03T04:46:32.497Z,4.00
2018-11-03T04:47:32.520Z,3.99
2018-11-03T04:48:32.547Z,4.08
2018-11-03T04:49:32.565Z,4.04
2018-11-03T04:50:32.589Z,3.90
2018-11-03T04:51:32.612Z,3.94
2018-11-03T04:52:32.635Z,3.92
2018-11-03T04:53:32.664Z,3.90
2018-11-03T04:54:32.679Z,3.90
2018-11-03T04:55:32.705Z,3.90
2018-11-03T04:56:32.725Z,3.89
2018-11-03T04:57:32.748Z,3.84
2018-11-03T04:58:32.772Z,3.92
2018-11-03T04:59:32.795Z,3.90
2018-11-03T05:00:32.817Z,3.93
2018-11-03T05:01:32.839Z,3.93
2018-11-03T05:02:32.866Z,3.85
2018-11-03T05:03:32.885Z,3.94
2018-11-03T05:04:32.909Z,3.94
2018-11-03T05:05:32.931Z,3.99
2018-11-03T05:06:32.953Z,3.89
2018-11-03T05:07:32.977Z,3.94
2018-11-03T05:08:32.999Z,3.93
2018-11-03T05:09:33.025Z,3.89
2018-11-03T05:10:33.068Z,3.94
2018-11-03T05:11:33.079Z,3.81
2018-11-03T05:12:33.098Z,3.84
2018-11-03T05:13:33.112Z,3.86
2018-11-03T05:14:33.135Z,3.90
2018-11-03T05:15:33.159Z,3.85
2018-11-03T05:16:33.181Z,3.90
2018-11-03T05:17:33.204Z,3.93
2018-11-03T05:18:33.226Z,3.89
2018-11-03T05:19:33.249Z,3.86
2018-11-03T05:20:33.273Z,3.89
2018-11-03T05:21:33.294Z,3.90
2018-11-03T05:22:33.319Z,3.97
2018-11-03T05:23:33.340Z,3.84
2018-11-03T05:24:33.364Z,3.89
2018-11-03T05:25:33.385Z,3.92
2018-11-03T05:26:33.409Z,3.92
2018-11-03T05:27:33.445Z,3.89
2018-11-03T05:28:33.455Z,4.02
2018-11-03T05:29:33.476Z,3.97
2018-11-03T05:30:33.500Z,3.90
2018-11-03T05:31:33.522Z,4.08
2018-11-03T05:32:33.546Z,4.00
2018-11-03T05:33:33.568Z,3.89
2018-11-03T05:34:33.592Z,3.99
2018-11-03T05:35:33.669Z,3.96
2018-11-03T05:36:33.639Z,4.00
2018-11-03T05:37:33.659Z,3.97
2018-11-03T05:38:33.682Z,3.97
2018-11-03T05:39:33.705Z,4.04
2018-11-03T05:40:33.728Z,4.00
2018-11-03T05:41:33.751Z,4.00
2018-11-03T05:42:33.779Z,3.97
2018-11-03T05:43:33.796Z,4.00
2018-11-03T05:44:33.818Z,4.02
2018-11-03T05:45:33.841Z,3.99
2018-11-03T05:46:33.963Z,4.07
2018-11-03T05:47:33.887Z,3.90
2018-11-03T05:48:33.911Z,3.96
2018-11-03T05:49:33.932Z,4.07
2018-11-03T05:50:33.955Z,3.99
2018-11-03T05:51:33.983Z,4.00
2018-11-03T05:52:34.008Z,4.00
2018-11-03T05:53:34.023Z,3.97
2018-11-03T05:54:34.050Z,4.02
2018-11-03T05:55:34.070Z,4.03
2018-11-03T05:56:34.092Z,4.02
2018-11-03T05:57:34.114Z,3.99
2018-11-03T05:58:34.137Z,4.00
2018-11-03T05:59:34.161Z,4.03
2018-11-03T06:00:34.183Z,4.07
2018-11-03T06:01:34.205Z,3.93
2018-11-03T06:02:34.229Z,4.04
2018-11-03T06:03:34.252Z,4.02
2018-11-03T06:04:34.275Z,3.97
2018-11-03T06:05:34.297Z,4.00
2018-11-03T06:06:34.320Z,3.96
2018-11-03T06:07:34.343Z,4.02
2018-11-03T06:08:34.385Z,3.92
2018-11-03T06:09:34.388Z,3.94
2018-11-03T06:10:34.412Z,3.84
2018-11-03T06:11:34.435Z,3.84
2018-11-03T06:12:34.459Z,3.82
2018-11-03T06:13:34.478Z,3.79
2018-11-03T06:14:34.501Z,3.81
2018-11-03T06:15:34.610Z,3.82
2018-11-03T06:16:34.549Z,3.84
2018-11-03T06:17:34.570Z,3.67
2018-11-03T06:18:34.597Z,3.69
2018-11-03T06:19:34.651Z,3.60
2018-11-03T06:20:34.638Z,3.51
2018-11-03T06:21:34.660Z,3.56
2018-11-03T06:22:34.788Z,3.48
2018-11-03T06:23:34.786Z,3.34
2018-11-03T06:24:34.729Z,3.48
2018-11-03T06:25:34.753Z,3.32
2018-11-03T06:26:34.777Z,3.35
2018-11-03T06:27:34.822Z,3.39
2018-11-03T06:28:34.820Z,3.45
2018-11-03T06:29:34.842Z,3.35
2018-11-03T06:30:34.866Z,3.40
2018-11-03T06:31:34.889Z,3.46
2018-11-03T06:32:34.911Z,3.40
2018-11-03T06:33:34.935Z,3.69
2018-11-03T06:34:34.964Z,3.64
2018-11-03T06:35:34.980Z,3.48
2018-11-03T06:36:35.000Z,3.61
2018-11-03T06:37:35.022Z,3.63
2018-11-03T06:38:35.046Z,3.49
2018-11-03T06:39:35.068Z,3.60
2018-11-03T06:40:35.091Z,3.67
2018-11-03T06:41:35.115Z,3.60
2018-11-03T06:42:35.135Z,3.64
2018-11-03T06:43:35.158Z,3.69
2018-11-03T06:44:35.181Z,3.76
2018-11-03T06:45:35.204Z,3.79
2018-11-03T06:46:35.258Z,3.84
2018-11-03T06:47:35.340Z,3.89
2018-11-03T06:48:35.273Z,4.03
2018-11-03T06:49:35.293Z,4.12
2018-11-03T06:50:35.316Z,4.03
2018-11-03T06:51:35.339Z,4.00
2018-11-03T06:52:35.365Z,4.04
2018-11-03T06:53:35.386Z,4.02
2018-11-03T06:54:35.406Z,4.03
2018-11-03T06:55:35.430Z,4.02
2018-11-03T06:56:35.454Z,3.99
2018-11-03T06:57:35.475Z,4.08
2018-11-03T06:58:35.499Z,4.02
2018-11-03T06:59:35.521Z,4.00
2018-11-03T07:00:35.568Z,4.17
2018-11-03T07:01:35.565Z,3.97
2018-11-03T07:02:35.589Z,4.11
2018-11-03T07:03:35.612Z,4.10
2018-11-03T07:04:35.636Z,4.17
2018-11-03T07:05:35.657Z,4.20
2018-11-03T07:06:35.713Z,4.32
2018-11-03T07:07:35.711Z,4.28
2018-11-03T07:08:35.726Z,4.32
2018-11-03T07:09:35.800Z,4.48
2018-11-03T07:10:35.771Z,4.47
2018-11-03T07:11:35.956Z,4.58
2018-11-03T07:12:36.083Z,4.54
2018-11-03T07:13:35.840Z,4.48
2018-11-03T07:14:35.863Z,4.57
2018-11-03T07:15:35.889Z,4.56
2018-11-03T07:16:35.909Z,4.69
2018-11-03T07:17:36.006Z,4.68
2018-11-03T07:18:35.955Z,4.69
2018-11-03T07:19:36.105Z,4.68
2018-11-03T07:20:36.001Z,4.76
2018-11-03T07:21:36.124Z,4.74
2018-11-03T07:22:36.052Z,4.84
2018-11-03T07:23:36.074Z,4.87
2018-11-03T07:24:36.093Z,4.90
2018-11-03T07:25:36.126Z,4.88
2018-11-03T07:26:36.138Z,4.88
2018-11-03T07:27:36.162Z,4.85
2018-11-03T07:28:36.189Z,4.95
2018-11-03T07:29:36.307Z,5.03
2018-11-03T07:30:36.236Z,4.92
2018-11-03T07:31:36.256Z,4.95
2018-11-03T07:32:36.278Z,5.00
2018-11-03T07:33:36.301Z,4.92
2018-11-03T07:34:36.326Z,5.00
2018-11-03T07:35:36.370Z,5.02
2018-11-03T07:36:36.372Z,5.06
2018-11-03T07:37:36.393Z,4.98
2018-11-03T07:38:36.417Z,5.13
2018-11-03T07:39:36.441Z,5.02
2018-11-03T07:40:36.475Z,5.06
2018-11-03T07:41:36.611Z,5.12
2018-11-03T07:42:36.587Z,5.12
2018-11-03T07:43:36.534Z,5.21
2018-11-03T07:44:36.559Z,5.26
2018-11-03T07:45:36.581Z,5.30
2018-11-03T07:46:36.604Z,5.28
2018-11-03T07:47:36.628Z,5.16
2018-11-03T07:48:36.744Z,5.30
2018-11-03T07:49:36.688Z,5.24
2018-11-03T07:50:36.698Z,5.20
2018-11-03T07:51:36.721Z,5.27
2018-11-03T07:52:36.746Z,5.34
2018-11-03T07:53:36.772Z,5.27
2018-11-03T07:54:36.821Z,5.26
2018-11-03T07:55:36.819Z,5.41
2018-11-03T07:56:36.841Z,5.41
2018-11-03T07:57:36.865Z,5.48
2018-11-03T07:58:36.888Z,5.46
2018-11-03T07:59:36.910Z,5.57
2018-11-03T08:00:37.010Z,5.51
2018-11-03T08:01:36.956Z,5.59
2018-11-03T08:02:36.984Z,5.66
2018-11-03T08:03:37.004Z,5.59
2018-11-03T08:04:37.029Z,5.64
2018-11-03T08:05:37.050Z,5.55
2018-11-03T08:06:37.075Z,5.70
2018-11-03T08:07:37.106Z,5.88
2018-11-03T08:08:37.137Z,5.82
2018-11-03T08:09:37.146Z,5.78
2018-11-03T08:10:37.170Z,5.85
2018-11-03T08:11:37.195Z,5.82
2018-11-03T08:12:37.217Z,5.82
2018-11-03T08:13:37.241Z,5.80
2018-11-03T08:14:37.268Z,5.77
2018-11-03T08:15:37.350Z,5.73
2018-11-03T08:16:37.314Z,5.73
2018-11-03T08:17:37.336Z,5.69
2018-11-03T08:18:37.361Z,5.73
2018-11-03T08:19:37.386Z,5.88
2018-11-03T08:20:37.408Z,5.85
2018-11-03T08:21:37.431Z,5.85
2018-11-03T08:22:37.456Z,5.89
2018-11-03T08:23:37.487Z,5.98
2018-11-03T08:24:37.503Z,6.00
2018-11-03T08:25:37.526Z,6.17
2018-11-03T08:26:37.551Z,6.18
2018-11-03T08:27:37.581Z,6.18
2018-11-03T08:28:37.599Z,6.37
2018-11-03T08:29:37.625Z,6.25
2018-11-03T08:30:37.647Z,6.17
2018-11-03T08:31:37.771Z,6.07
2018-11-03T08:32:37.697Z,6.18
2018-11-03T08:33:37.718Z,6.24
2018-11-03T08:34:37.743Z,6.26
2018-11-03T08:35:37.767Z,6.34
2018-11-03T08:36:37.792Z,6.40
2018-11-03T08:37:37.816Z,6.47
2018-11-03T08:38:37.840Z,6.49
2018-11-03T08:39:37.953Z,6.76
2018-11-03T08:40:37.888Z,6.80
2018-11-03T08:41:37.911Z,6.98
2018-11-03T08:42:37.936Z,7.41
2018-11-03T08:43:37.965Z,7.80
2018-11-03T08:44:37.987Z,7.92
2018-11-03T08:45:38.010Z,8.19
2018-11-03T08:46:38.035Z,8.36
2018-11-03T08:47:38.059Z,8.95
2018-11-03T08:48:38.178Z,9.35
2018-11-03T08:49:38.114Z,9.62
2018-11-03T08:50:38.133Z,9.55
2018-11-03T08:51:38.160Z,9.20
2018-11-03T08:52:38.219Z,8.85
2018-11-03T08:53:38.255Z,8.65
2018-11-03T08:54:38.236Z,8.65
2018-11-03T08:55:38.261Z,9.23
2018-11-03T08:56:38.290Z,9.80
2018-11-03T08:57:38.315Z,9.62
2018-11-03T08:58:38.343Z,9.88
2018-11-03T08:59:38.456Z,9.92
2018-11-03T09:00:38.393Z,10.46
2018-11-03T09:01:38.419Z,9.96
2018-11-03T09:02:38.449Z,9.95
2018-11-03T09:03:38.475Z,10.11
2018-11-03T09:04:38.505Z,10.46
2018-11-03T09:05:38.528Z,10.58
2018-11-03T09:06:38.556Z,10.55
2018-11-03T09:07:38.583Z,10.84
2018-11-03T09:08:38.611Z,10.75
2018-11-03T09:09:38.639Z,10.73
2018-11-03T09:10:38.665Z,11.05
2018-11-03T09:11:38.694Z,10.95
2018-11-03T09:12:38.721Z,11.12
2018-11-03T09:13:38.750Z,11.15
2018-11-03T09:14:38.866Z,11.39
2018-11-03T09:15:38.806Z,11.39
2018-11-03T09:16:38.836Z,11.76
2018-11-03T09:17:38.863Z,12.36
2018-11-03T09:18:38.892Z,12.71
2018-11-03T09:19:38.921Z,12.95
2018-11-03T09:20:38.952Z,13.40
2018-11-03T09:21:38.993Z,13.66
2018-11-03T09:22:39.130Z,14.23
2018-11-03T09:23:39.038Z,14.20
2018-11-03T09:24:39.068Z,13.68
2018-11-03T09:26:51.719Z,12.61
2018-11-03T09:27:51.750Z,12.33
2018-11-03T09:28:51.778Z,12.05
2018-11-03T09:29:51.809Z,12.59
2018-11-03T09:30:51.846Z,12.01
2018-11-03T09:31:51.967Z,11.46
2018-11-03T09:32:51.901Z,11.12
2018-11-03T09:33:51.934Z,10.69
2018-11-03T09:34:52.005Z,10.69
2018-11-03T09:35:51.995Z,11.23
2018-11-03T09:36:52.024Z,11.38
2018-11-03T09:37:52.054Z,11.81
2018-11-03T09:38:52.182Z,11.66
2018-11-03T09:39:52.115Z,11.61
2018-11-03T09:40:52.145Z,11.70
2018-11-03T09:41:52.178Z,11.64
2018-11-03T09:42:52.211Z,11.41
2018-11-03T09:43:52.236Z,11.13
2018-11-03T09:44:52.300Z,10.84
2018-11-03T09:45:52.297Z,10.70
2018-11-03T09:46:52.326Z,10.72
2018-11-03T09:47:52.362Z,10.79
2018-11-03T09:48:52.399Z,11.00
2018-11-03T09:49:52.417Z,11.10
2018-11-03T09:50:52.505Z,11.20
2018-11-03T09:51:52.478Z,11.03
2018-11-03T09:52:52.509Z,11.10
2018-11-03T09:53:52.541Z,11.31
2018-11-03T09:54:52.571Z,11.06
2018-11-03T09:55:52.599Z,10.79
2018-11-03T09:56:52.626Z,10.26
2018-11-03T09:57:52.655Z,10.36
2018-11-03T09:58:52.686Z,10.39
2018-11-03T09:59:52.715Z,10.72
2018-11-03T10:00:52.747Z,10.57
2018-11-03T10:01:52.777Z,10.63
2018-11-03T10:02:52.804Z,11.02
2018-11-03T10:03:52.833Z,10.79
2018-11-03T10:04:52.861Z,10.80
2018-11-03T10:05:52.893Z,10.84
2018-11-03T10:06:52.920Z,11.26
2018-11-03T10:07:52.952Z,11.78
2018-11-03T10:08:52.980Z,12.38
2018-11-03T10:09:53.009Z,12.65
2018-11-03T10:10:53.039Z,12.58
2018-11-03T10:11:53.069Z,12.25
2018-11-03T10:12:53.097Z,12.03
2018-11-03T10:13:53.128Z,11.68
2018-11-03T10:14:53.161Z,11.39
2018-11-03T10:15:53.302Z,11.33
2018-11-03T10:16:53.215Z,11.15
2018-11-03T10:17:53.246Z,10.97
2018-11-03T10:18:53.276Z,11.16
2018-11-03T10:19:53.305Z,11.05
2018-11-03T10:20:53.338Z,10.94
2018-11-03T10:21:53.363Z,11.18
2018-11-03T10:22:53.465Z,11.26
2018-11-03T10:23:53.446Z,11.12
2018-11-03T10:24:53.451Z,11.57
2018-11-03T10:25:53.481Z,11.75
2018-11-03T10:26:53.510Z,11.79
2018-11-03T10:27:53.540Z,12.29
2018-11-03T10:28:53.581Z,12.08
2018-11-03T10:29:53.598Z,12.29
2018-11-03T10:30:53.629Z,12.91
2018-11-03T10:31:53.659Z,12.88
2018-11-03T10:32:53.687Z,12.96
2018-11-03T10:33:53.734Z,13.10
2018-11-03T10:34:53.747Z,13.88
2018-11-03T10:35:53.775Z,14.36
2018-11-03T10:36:53.807Z,14.86
2018-11-03T10:37:53.835Z,14.11
2018-11-03T10:38:53.865Z,13.19
2018-11-03T10:39:53.901Z,12.96
2018-11-03T10:40:53.948Z,13.31
2018-11-03T10:41:53.956Z,14.19
2018-11-03T10:42:53.987Z,14.26
2018-11-03T10:43:54.018Z,14.15
2018-11-03T10:44:54.049Z,14.15
2018-11-03T10:45:54.079Z,14.01
2018-11-03T10:46:54.110Z,13.54
2018-11-03T10:47:54.142Z,14.13
2018-11-03T10:49:54.205Z,14.33
2018-11-03T10:50:54.231Z,14.63
2018-11-03T10:51:54.268Z,15.12
2018-11-03T10:52:54.295Z,14.77
2018-11-03T10:53:54.325Z,14.90
2018-11-03T10:54:54.358Z,14.44
2018-11-03T10:55:54.389Z,14.79
2018-11-03T10:56:54.433Z,15.10
2018-11-03T10:57:54.451Z,15.22
2018-11-03T10:58:54.482Z,14.56
2018-11-03T10:59:54.521Z,14.06
2018-11-03T11:00:54.545Z,14.30
2018-11-03T11:01:54.577Z,13.86
2018-11-03T11:02:54.611Z,13.86
2018-11-03T11:03:54.641Z,13.88
2018-11-03T11:04:54.673Z,14.59
2018-11-03T11:05:54.705Z,15.25
2018-11-03T11:06:54.736Z,15.38
2018-11-03T11:07:54.768Z,14.90
2018-11-03T11:08:54.798Z,14.44
2018-11-03T11:09:54.831Z,14.01
2018-11-03T11:10:54.863Z,13.86
2018-11-03T11:11:54.898Z,14.24
2018-11-03T11:12:54.928Z,14.33
2018-11-03T11:13:55.030Z,14.48
2018-11-03T11:14:54.992Z,14.82
2018-11-03T11:15:55.094Z,15.12
2018-11-03T11:16:55.125Z,15.20
2018-11-03T11:17:55.087Z,15.55
2018-11-03T11:18:55.119Z,15.23
2018-11-03T11:19:55.152Z,14.39
2018-11-03T11:20:55.183Z,14.61
2018-11-03T11:21:55.216Z,14.80
2018-11-03T11:22:55.250Z,14.83
2018-11-03T11:23:55.293Z,14.97
2018-11-03T11:24:55.442Z,15.07
2018-11-03T11:25:55.344Z,14.70
2018-11-03T11:26:55.377Z,15.00
2018-11-03T11:27:55.411Z,15.74
2018-11-03T11:28:55.444Z,16.11
2018-11-03T11:29:55.473Z,15.81
2018-11-03T11:30:55.504Z,15.68
2018-11-03T11:31:55.538Z,15.70
2018-11-03T11:32:55.571Z,15.65
2018-11-03T11:33:55.604Z,15.81
2018-11-03T11:34:55.634Z,15.15
2018-11-03T11:35:55.667Z,14.61
2018-11-03T11:36:55.699Z,14.45
2018-11-03T11:37:55.735Z,14.87
2018-11-03T11:38:55.764Z,15.13
2018-11-03T11:39:55.800Z,15.38
2018-11-03T11:40:55.829Z,15.55
2018-11-03T11:41:55.862Z,15.45
2018-11-03T11:42:55.922Z,15.67
2018-11-03T11:43:55.929Z,15.43
2018-11-03T11:44:55.959Z,15.26
2018-11-03T11:45:55.994Z,15.59
2018-11-03T11:46:56.027Z,15.67
2018-11-03T11:47:56.057Z,15.16
2018-11-03T11:48:56.090Z,15.08
2018-11-03T11:49:56.123Z,15.10
2018-11-03T11:50:56.155Z,15.37
2018-11-03T11:51:56.189Z,15.99
2018-11-03T11:52:56.220Z,16.47
2018-11-03T11:53:56.254Z,16.84
2018-11-03T11:54:56.339Z,17.06
2018-11-03T11:55:56.320Z,17.47
2018-11-03T11:56:56.352Z,17.58
2018-11-03T11:57:56.384Z,17.18
2018-11-03T12:03:05.680Z,16.73
2018-11-03T12:04:05.690Z,16.77
2018-11-03T12:05:05.722Z,17.12
2018-11-03T12:06:05.756Z,17.39
2018-11-03T12:07:05.789Z,16.67
2018-11-03T12:08:05.824Z,16.16
2018-11-03T12:09:05.857Z,16.44
2018-11-03T12:10:05.988Z,16.48
2018-11-03T12:11:05.923Z,16.62
2018-11-03T12:12:05.959Z,16.17
2018-11-03T12:13:05.990Z,15.58
2018-11-03T12:14:06.022Z,15.45
2018-11-03T12:15:06.057Z,15.60
2018-11-03T12:16:06.127Z,15.95
2018-11-03T12:17:06.123Z,16.16
2018-11-03T12:18:06.156Z,16.32
2018-11-03T12:19:06.191Z,16.47
2018-11-03T12:20:06.223Z,16.51
2018-11-03T12:21:06.255Z,16.49
2018-11-03T12:22:06.288Z,16.85
2018-11-03T12:23:06.323Z,17.28
2018-11-03T12:24:06.355Z,17.57
2018-11-03T12:25:06.388Z,17.55
2018-11-03T12:26:06.422Z,17.46
2018-11-03T12:27:06.454Z,17.63
2018-11-03T12:28:06.487Z,17.68
2018-11-03T12:29:06.521Z,17.87
2018-11-03T12:30:06.553Z,17.99
2018-11-03T12:31:06.588Z,17.88
2018-11-03T12:32:06.620Z,17.94
2018-11-03T12:33:06.654Z,17.32
2018-11-03T12:34:06.687Z,17.49
2018-11-03T12:35:06.721Z,17.86
2018-11-03T12:36:06.753Z,17.84
2018-11-03T12:37:06.787Z,17.38
2018-11-03T12:38:06.819Z,17.58
2018-11-03T12:39:06.852Z,17.46
2018-11-03T12:40:06.887Z,16.69
2018-11-03T12:41:06.981Z,16.55
2018-11-03T12:42:06.953Z,16.04
2018-11-03T12:43:06.986Z,15.86
2018-11-03T12:44:07.018Z,15.67
2018-11-03T12:45:07.051Z,15.27
2018-11-03T12:46:07.140Z,14.89
2018-11-03T12:47:07.118Z,15.13
2018-11-03T12:48:07.168Z,15.26
2018-11-03T12:49:07.183Z,15.12
2018-11-03T12:50:07.214Z,15.16
2018-11-03T12:51:07.246Z,15.25
2018-11-03T12:52:07.278Z,14.90
2018-11-03T12:53:07.310Z,14.89
2018-11-03T12:54:07.343Z,15.01
2018-11-03T12:55:07.379Z,15.13
2018-11-03T12:56:07.405Z,15.18
2018-11-03T12:57:07.437Z,15.01
2018-11-03T12:58:07.468Z,15.18
2018-11-03T12:59:07.606Z,15.34
2018-11-03T13:00:07.533Z,15.59
2018-11-03T13:01:07.563Z,15.77
2018-11-03T13:02:07.594Z,15.58
2018-11-03T13:03:07.681Z,15.31
2018-11-03T13:04:07.657Z,15.25
2018-11-03T13:05:07.805Z,14.83
2018-11-03T13:06:07.719Z,14.74
2018-11-03T13:07:07.752Z,14.75
2018-11-03T13:08:07.783Z,14.66
2018-11-03T13:09:07.814Z,14.80
2018-11-03T13:10:07.844Z,14.86
2018-11-03T13:11:07.875Z,15.01
2018-11-03T13:12:07.982Z,14.70
2018-11-03T13:13:07.937Z,14.21
2018-11-03T13:14:07.967Z,14.12
2018-11-03T13:15:07.999Z,14.11
2018-11-03T13:16:08.033Z,14.39
2018-11-03T13:17:08.062Z,14.45